Minerva Grace — SVBN7 — position and weather

sailwx.info

Track history (hours):
 
Tides and Currents Weather Stations Pressure Air Temp Water Temp Dewpoint Dewpoint Depression Visibility Wind Speed Wind Dir Waves Ship Positions

Minerva Grace

Last reported at 2014-Aug-07 02:23 UTC. Time now 2014-Aug-31 04:33 UTC.
Position N 36°28' E 023°18'.
Warning: this ship's position is 24 days out of date.

Length 183 m; draft 13.1 m.

Type: Tanker. MMSI: 241193000.

Date/timePositionNaut miles runAvg speedWind from/ knotsBaromVisibWave heightAir tempDewpointWater temp
2014-Aug-07 02:23N 36°28' E 023°18'2712.3
2014-Aug-07 00:12N 36°51' E 023°35'3512.9
2014-Aug-06 21:30N 37°21' E 023°57'1212.8
2014-Aug-06 20:33N 37°32' E 024°04'1812.8
2014-Aug-06 19:10N 37°47' E 024°17'812.6
2014-Aug-06 18:33N 37°51' E 024°25'9112.2
2014-Aug-06 11:06N 39°10' E 025°22'712.3
2014-Aug-06 10:33N 39°15' E 025°27'5112.4
2014-Aug-06 06:27N 39°60' E 025°59'130 4.2
2014-Aug-04 23:27N 40°52' E 028°36'1212.6
2014-Aug-04 22:32N 40°55' E 028°51'7 7.5
2014-Aug-04 21:33N 40°59' E 028°59'252 7.0
2014-Aug-03 09:18N 42°37' E 034°11'  
Track history (hours):
 
Tides and Currents Weather Stations Pressure Air Temp Water Temp Dewpoint Dewpoint Depression Visibility Wind Speed Wind Dir Waves Ship Positions

Minerva Grace

Last reported at 2014-Aug-07 02:23 UTC. Time now 2014-Aug-31 04:33 UTC.
Position N 36°28' E 023°18'.
Warning: this ship's position is 24 days out of date.

Length 183 m; draft 13.1 m.

Type: Tanker. MMSI: 241193000.

Date/timePositionNaut miles runAvg speedWind from/ knotsBaromVisibWave heightAir tempDewpointWater temp
2014-Aug-07 02:23N 36°28' E 023°18'2712.3
2014-Aug-07 00:12N 36°51' E 023°35'3512.9
2014-Aug-06 21:30N 37°21' E 023°57'1212.8
2014-Aug-06 20:33N 37°32' E 024°04'1812.8
2014-Aug-06 19:10N 37°47' E 024°17'812.6
2014-Aug-06 18:33N 37°51' E 024°25'9112.2
2014-Aug-06 11:06N 39°10' E 025°22'712.3
2014-Aug-06 10:33N 39°15' E 025°27'5112.4
2014-Aug-06 06:27N 39°60' E 025°59'130 4.2
2014-Aug-04 23:27N 40°52' E 028°36'1212.6
2014-Aug-04 22:32N 40°55' E 028°51'7 7.5
2014-Aug-04 21:33N 40°59' E 028°59'252 7.0
2014-Aug-03 09:18N 42°37' E 034°11'  

Dump ship's entire track history